Time;durP1;ratioP1;P1;durP2;ratioP2;P2;SDS_P1;SDS_P2;PMS_P1;PMS_P2;Temp;Humidity;BMP_temperature;BMP_pressure;BME280_temperature;BME280_humidity;BME280_pressure;Samples;Min_cycle;Max_cycle;Signal;HPM_P1;HPM_P2
2023/05/17 00:01:34;;;;;;;2.20;1.02;;;21.20;62.70;;;;;;4082733;29;20071;-58
2023/05/17 00:03:57;;;;;;;3.25;1.00;;;21.20;62.70;;;;;;4077438;29;20047;-50
2023/05/17 00:06:20;;;;;;;6.57;1.45;;;21.10;62.70;;;;;;4081753;29;20043;-56
2023/05/17 00:08:42;;;;;;;6.70;1.25;;;21.00;62.80;;;;;;4077050;29;20373;-56
2023/05/17 00:11:05;;;;;;;3.67;1.30;;;21.00;62.90;;;;;;4079555;29;20090;-56
2023/05/17 00:13:27;;;;;;;5.43;1.40;;;20.90;63.00;;;;;;4075996;29;20143;-56
2023/05/17 00:15:50;;;;;;;4.97;1.27;;;20.90;63.10;;;;;;4077044;29;20051;-54
2023/05/17 00:18:12;;;;;;;4.32;1.05;;;20.90;63.20;;;;;;4078732;29;20087;-54
2023/05/17 00:20:35;;;;;;;2.17;0.90;;;20.80;63.10;;;;;;4080272;29;20051;-56
2023/05/17 00:22:57;;;;;;;4.55;1.20;;;20.80;63.20;;;;;;4063618;29;20040;-56
2023/05/17 00:25:20;;;;;;;2.45;1.10;;;20.80;63.10;;;;;;4062110;29;20043;-48
2023/05/17 00:27:42;;;;;;;5.97;1.42;;;20.70;63.20;;;;;;4076391;29;20562;-51
2023/05/17 00:30:06;;;;;;;4.40;1.63;;;20.70;63.50;;;;;;4074513;29;20047;-59
2023/05/17 00:32:28;;;;;;;3.63;1.27;;;20.70;63.70;;;;;;4078750;29;20055;-60
2023/05/17 00:34:51;;;;;;;5.47;1.52;;;20.70;63.30;;;;;;4080949;29;20068;-59
2023/05/17 00:37:13;;;;;;;2.65;1.20;;;20.60;63.20;;;;;;4075741;29;20440;-58
2023/05/17 00:39:35;;;;;;;5.28;1.60;;;20.60;62.90;;;;;;4078119;29;20051;-54
2023/05/17 00:41:59;;;;;;;3.92;1.80;;;20.60;62.80;;;;;;4081169;28;20090;-56
2023/05/17 00:44:22;;;;;;;4.50;1.35;;;20.60;62.80;;;;;;4078433;29;20035;-56
2023/05/17 00:46:45;;;;;;;2.67;1.40;;;20.60;62.70;;;;;;4082254;29;20444;-54
2023/05/17 00:49:08;;;;;;;3.22;1.35;;;20.50;62.60;;;;;;4076563;29;20066;-56
2023/05/17 00:51:31;;;;;;;4.47;1.30;;;20.50;62.50;;;;;;4080197;29;20039;-51
2023/05/17 00:53:53;;;;;;;2.10;0.80;;;20.50;62.60;;;;;;4081551;29;20091;-56
2023/05/17 00:56:16;;;;;;;6.38;1.15;;;20.50;62.60;;;;;;4080027;29;20047;-58
2023/05/17 00:58:39;;;;;;;3.88;1.30;;;20.50;62.60;;;;;;4079817;28;20039;-53
2023/05/17 01:01:02;;;;;;;3.60;1.45;;;20.40;62.70;;;;;;4077560;29;20503;-59
2023/05/17 01:03:25;;;;;;;2.80;1.00;;;20.40;62.70;;;;;;4073303;29;20090;-59
2023/05/17 01:05:48;;;;;;;3.20;0.95;;;20.40;62.60;;;;;;4076343;29;20039;-61
2023/05/17 01:08:10;;;;;;;4.35;1.17;;;20.40;62.60;;;;;;4078382;29;20111;-59
2023/05/17 01:10:54;;;;;;;5.28;1.45;;;20.40;62.40;;;;;;4077047;29;20463;-61
2023/05/17 01:13:42;;;;;;;3.42;1.02;;;20.40;62.70;;;;;;4077038;29;20404;-62
2023/05/17 01:16:22;;;;;;;4.65;1.60;;;20.30;62.70;;;;;;4078659;29;20500;-60
2023/05/17 01:18:53;;;;;;;4.53;1.30;;;20.30;62.80;;;;;;4080006;28;20168;-58
2023/05/17 01:21:39;;;;;;;4.32;0.85;;;20.30;63.00;;;;;;4062629;29;20492;-63
2023/05/17 01:24:27;;;;;;;3.88;1.10;;;20.20;63.30;;;;;;4061946;29;20050;-61
2023/05/17 01:26:50;;;;;;;2.90;1.02;;;20.20;63.40;;;;;;4076800;29;20075;-59
2023/05/17 01:29:14;;;;;;;5.53;1.33;;;20.20;63.40;;;;;;4078218;29;20094;-60
2023/05/17 01:31:38;;;;;;;4.63;1.40;;;20.20;63.50;;;;;;4079871;29;20043;-60
2023/05/17 01:34:00;;;;;;;4.55;1.10;;;20.20;63.70;;;;;;4059104;29;20039;-59
2023/05/17 01:36:23;;;;;;;4.85;1.33;;;20.20;63.90;;;;;;4073724;29;20071;-56
2023/05/17 01:38:45;;;;;;;4.10;1.20;;;20.20;64.00;;;;;;4063529;29;20530;-60
2023/05/17 01:41:15;;;;;;;5.93;1.15;;;20.20;64.00;;;;;;4079614;29;20497;-56
2023/05/17 01:44:08;;;;;;;4.18;1.05;;;20.20;64.00;;;;;;4079753;29;20031;-58
2023/05/17 01:46:43;;;;;;;5.95;0.90;;;20.10;64.00;;;;;;4062522;29;20131;-58
2023/05/17 01:49:11;;;;;;;3.70;0.73;;;20.10;64.00;;;;;;4077626;29;20032;-53
2023/05/17 01:51:44;;;;;;;3.65;0.77;;;20.10;64.10;;;;;;4078719;29;20047;-58
2023/05/17 01:54:10;;;;;;;3.72;1.10;;;20.10;64.10;;;;;;4074448;29;20047;-59
2023/05/17 01:56:36;;;;;;;3.38;1.20;;;20.00;64.30;;;;;;4076896;29;20045;-59
2023/05/17 01:59:02;;;;;;;2.40;0.98;;;20.00;64.30;;;;;;4078152;29;20515;-54
2023/05/17 02:01:27;;;;;;;4.15;1.15;;;20.00;64.30;;;;;;4074807;29;20047;-60
2023/05/17 02:03:50;;;;;;;3.78;1.52;;;20.00;65.10;;;;;;4078107;29;20499;-62
2023/05/17 02:06:12;;;;;;;3.28;1.02;;;20.00;64.50;;;;;;4074332;29;20496;-60
2023/05/17 02:08:35;;;;;;;3.95;1.10;;;20.10;64.30;;;;;;4075157;29;20031;-62
2023/05/17 02:10:57;;;;;;;10.05;1.42;;;20.10;64.30;;;;;;4078516;29;20427;-63
2023/05/17 02:13:20;;;;;;;3.65;1.17;;;20.00;64.40;;;;;;4079019;29;20040;-57
2023/05/17 02:15:42;;;;;;;11.65;2.10;;;20.00;64.30;;;;;;4078880;29;20051;-64
2023/05/17 02:18:05;;;;;;;9.00;1.38;;;20.00;64.50;;;;;;4077691;29;20411;-63
2023/05/17 02:20:27;;;;;;;3.33;1.30;;;20.10;64.30;;;;;;4080837;29;20064;-64
2023/05/17 02:22:50;;;;;;;4.35;1.27;;;20.10;64.20;;;;;;4075564;29;20218;-61
2023/05/17 02:25:12;;;;;;;7.63;1.90;;;20.10;64.10;;;;;;4079231;29;20040;-63
2023/05/17 02:27:35;;;;;;;11.57;1.83;;;20.10;64.20;;;;;;4076888;29;20487;-58
2023/05/17 02:29:57;;;;;;;2.75;1.35;;;20.10;64.20;;;;;;4076651;29;20040;-58
2023/05/17 02:32:20;;;;;;;4.30;0.90;;;20.10;64.20;;;;;;4081561;29;20035;-53
2023/05/17 02:34:42;;;;;;;4.63;1.70;;;20.00;64.00;;;;;;4079449;29;20047;-55
2023/05/17 02:37:05;;;;;;;3.38;0.95;;;20.00;64.00;;;;;;4076993;29;20404;-57
2023/05/17 02:39:27;;;;;;;5.40;1.63;;;20.10;64.10;;;;;;4078530;29;20122;-55
2023/05/17 02:41:50;;;;;;;3.85;0.90;;;20.10;64.00;;;;;;4078351;29;20416;-57
2023/05/17 02:44:12;;;;;;;3.40;0.77;;;20.00;63.90;;;;;;4077506;29;20042;-60
2023/05/17 02:46:35;;;;;;;4.70;0.80;;;20.10;63.90;;;;;;4075748;29;20043;-57
2023/05/17 02:48:57;;;;;;;3.35;0.57;;;20.10;63.90;;;;;;4078203;29;20037;-62
2023/05/17 02:51:19;;;;;;;1.20;0.65;;;20.00;63.90;;;;;;4078758;29;20059;-61
2023/05/17 02:53:42;;;;;;;5.10;0.90;;;20.10;64.00;;;;;;4072511;29;20031;-64
2023/05/17 02:56:04;;;;;;;3.38;1.10;;;20.10;64.00;;;;;;4079227;29;20555;-60
2023/05/17 02:58:27;;;;;;;2.50;0.93;;;20.00;64.00;;;;;;4077761;29;20095;-60
2023/05/17 03:00:50;;;;;;;3.08;0.90;;;20.00;64.10;;;;;;4078311;29;20141;-60
2023/05/17 03:03:12;;;;;;;6.68;1.20;;;20.00;64.10;;;;;;4071005;29;20083;-64
2023/05/17 03:05:35;;;;;;;2.42;0.80;;;20.00;64.30;;;;;;4077660;29;20079;-60
2023/05/17 03:07:57;;;;;;;2.72;0.95;;;20.00;64.30;;;;;;4076339;29;20043;-61
2023/05/17 03:10:20;;;;;;;4.43;1.10;;;20.00;64.20;;;;;;4079746;29;20419;-53
2023/05/17 03:12:42;;;;;;;4.45;0.85;;;20.00;64.20;;;;;;4061331;29;20623;-58
2023/05/17 03:15:05;;;;;;;2.15;0.82;;;20.10;64.50;;;;;;4076700;29;20048;-54
2023/05/17 03:17:27;;;;;;;1.33;0.70;;;20.10;64.40;;;;;;4078921;29;20040;-54
2023/05/17 03:19:50;;;;;;;4.43;1.00;;;20.10;64.10;;;;;;4079084;29;20040;-58
2023/05/17 03:22:12;;;;;;;5.05;0.77;;;20.20;64.10;;;;;;4078417;29;20087;-58
2023/05/17 03:24:35;;;;;;;3.78;0.80;;;20.20;64.00;;;;;;4075023;29;20488;-66
2023/05/17 03:26:57;;;;;;;7.97;1.27;;;20.10;63.90;;;;;;4064387;29;20155;-65
2023/05/17 03:29:19;;;;;;;3.50;0.88;;;20.20;64.20;;;;;;4078621;29;20448;-62
2023/05/17 03:31:42;;;;;;;5.40;1.00;;;20.10;64.10;;;;;;4075424;29;20050;-61
2023/05/17 03:34:04;;;;;;;7.03;1.10;;;20.20;64.40;;;;;;4076213;29;20036;-60
2023/05/17 03:36:27;;;;;;;2.58;0.80;;;20.20;64.10;;;;;;4059915;29;20052;-58
2023/05/17 03:38:49;;;;;;;2.05;0.85;;;20.20;64.00;;;;;;4076699;29;20373;-61
2023/05/17 03:41:12;;;;;;;6.85;1.30;;;20.20;63.90;;;;;;4076587;29;20050;-59
2023/05/17 03:43:34;;;;;;;3.63;0.77;;;20.20;63.90;;;;;;4077991;29;20419;-62
2023/05/17 03:45:57;;;;;;;5.18;1.00;;;20.20;63.80;;;;;;4076323;29;20051;-61
2023/05/17 03:48:19;;;;;;;1.13;0.60;;;20.30;63.90;;;;;;4062438;29;20068;-58
2023/05/17 03:50:41;;;;;;;5.78;0.90;;;20.30;63.90;;;;;;4075947;29;20114;-60
2023/05/17 03:53:04;;;;;;;1.88;0.82;;;20.30;63.90;;;;;;4064063;29;20071;-58
2023/05/17 03:55:26;;;;;;;3.83;1.10;;;20.40;63.80;;;;;;4077019;29;20079;-57
2023/05/17 03:57:49;;;;;;;8.93;1.20;;;20.40;63.60;;;;;;4072239;29;20067;-48
2023/05/17 04:00:12;;;;;;;5.72;0.95;;;20.50;63.30;;;;;;4079121;29;20054;-53
2023/05/17 04:02:34;;;;;;;2.10;0.70;;;20.50;62.80;;;;;;4070005;29;20473;-54
2023/05/17 04:04:57;;;;;;;4.60;1.00;;;20.40;62.60;;;;;;4060695;29;20104;-64
2023/05/17 04:07:19;;;;;;;5.70;1.40;;;20.40;62.30;;;;;;4079023;28;20036;-56
2023/05/17 04:09:42;;;;;;;5.72;1.67;;;20.40;62.60;;;;;;4073453;29;20119;-60
2023/05/17 04:12:04;;;;;;;4.45;1.30;;;20.40;63.40;;;;;;4077427;29;20159;-65
2023/05/17 04:14:26;;;;;;;3.80;1.17;;;20.50;63.90;;;;;;4063468;29;20072;-62
2023/05/17 04:16:49;;;;;;;6.30;1.27;;;20.50;64.00;;;;;;4066249;29;20043;-68
2023/05/17 04:19:12;;;;;;;14.85;1.58;;;20.50;63.90;;;;;;4074283;29;20048;-72
2023/05/17 04:21:34;;;;;;;5.28;1.30;;;20.60;63.90;;;;;;4079557;29;20424;-65
2023/05/17 04:23:57;;;;;;;7.10;1.38;;;20.60;63.80;;;;;;4078015;29;20043;-63
2023/05/17 04:26:19;;;;;;;5.25;1.15;;;20.70;63.80;;;;;;4078644;29;20047;-69
2023/05/17 04:28:41;;;;;;;3.92;1.00;;;20.70;63.60;;;;;;4073834;29;20186;-75
2023/05/17 04:31:07;;;;;;;3.38;0.80;;;20.70;63.60;;;;;;4078052;29;20558;-67
2023/05/17 04:33:29;;;;;;;7.50;1.20;;;20.80;63.40;;;;;;4078532;29;20047;-64
2023/05/17 04:35:55;;;;;;;2.63;0.80;;;20.80;63.30;;;;;;4081114;29;20083;-67
2023/05/17 04:38:17;;;;;;;2.35;0.90;;;20.90;63.40;;;;;;4077126;29;20408;-62
2023/05/17 04:40:41;;;;;;;2.95;0.90;;;20.90;63.20;;;;;;4078376;29;20067;-67
2023/05/17 04:43:03;;;;;;;4.60;0.90;;;21.00;63.10;;;;;;4066346;29;20076;-67
2023/05/17 04:45:26;;;;;;;2.13;0.60;;;21.00;62.90;;;;;;4080325;29;20074;-65
2023/05/17 04:47:49;;;;;;;2.03;0.90;;;21.10;63.00;;;;;;4077715;29;20035;-71
2023/05/17 04:50:12;;;;;;;5.45;1.10;;;21.10;62.80;;;;;;4083127;28;20415;-68
2023/05/17 04:52:34;;;;;;;1.45;0.63;;;21.20;62.70;;;;;;4096051;28;20517;-65
2023/05/17 04:54:57;;;;;;;3.47;1.00;;;21.20;62.50;;;;;;4079173;28;20067;-68
2023/05/17 04:57:20;;;;;;;3.28;0.93;;;21.20;62.40;;;;;;4090402;28;20042;-70
2023/05/17 04:59:42;;;;;;;3.67;1.23;;;21.30;62.80;;;;;;4093901;28;20035;-65
2023/05/17 05:02:05;;;;;;;4.60;1.17;;;21.20;62.60;;;;;;4094755;28;20034;-70
2023/05/17 05:04:27;;;;;;;6.28;1.25;;;21.20;62.80;;;;;;4089253;28;20043;-65
2023/05/17 05:06:50;;;;;;;2.70;1.05;;;21.20;62.80;;;;;;4091794;28;20107;-67
2023/05/17 05:09:13;;;;;;;3.25;1.08;;;21.20;62.60;;;;;;4093920;28;20078;-63
2023/05/17 05:11:35;;;;;;;2.60;1.00;;;21.30;62.50;;;;;;4093271;28;20659;-68
2023/05/17 05:13:58;;;;;;;4.63;1.00;;;21.30;62.50;;;;;;4092250;28;20035;-65
2023/05/17 05:16:20;;;;;;;2.40;0.82;;;21.30;62.40;;;;;;4093836;28;20046;-63
2023/05/17 05:18:42;;;;;;;3.30;1.02;;;21.30;62.40;;;;;;4094297;28;20086;-70
2023/05/17 05:21:05;;;;;;;3.13;0.80;;;21.40;62.30;;;;;;4092594;28;20059;-70
2023/05/17 05:23:27;;;;;;;2.60;0.80;;;21.40;62.10;;;;;;4094877;28;20039;-68
2023/05/17 05:25:50;;;;;;;2.67;0.73;;;21.40;62.10;;;;;;4093067;28;20130;-64
2023/05/17 05:28:12;;;;;;;2.92;0.75;;;21.30;62.00;;;;;;4094972;28;20370;-66
2023/05/17 05:30:35;;;;;;;1.98;0.88;;;21.30;62.10;;;;;;4079016;29;20102;-64
2023/05/17 05:32:57;;;;;;;1.50;0.40;;;21.30;62.20;;;;;;4094416;28;20042;-72
2023/05/17 05:35:24;;;;;;;1.95;0.50;;;21.20;62.10;;;;;;4094316;28;20042;-69
2023/05/17 05:37:47;;;;;;;0.38;0.38;;;21.20;63.00;;;;;;4093263;28;20050;-61
2023/05/17 05:40:10;;;;;;;3.03;0.55;;;21.20;62.10;;;;;;4094111;28;20170;-66
2023/05/17 05:42:33;;;;;;;1.92;0.50;;;21.10;62.10;;;;;;4090810;28;20046;-68
2023/05/17 05:44:55;;;;;;;2.28;0.50;;;21.10;62.10;;;;;;4093497;28;20043;-69
2023/05/17 05:47:17;;;;;;;1.90;0.40;;;21.10;62.00;;;;;;4089977;28;20043;-69
2023/05/17 05:49:40;;;;;;;1.70;0.50;;;21.10;62.00;;;;;;4094328;28;20042;-69
2023/05/17 05:52:02;;;;;;;1.17;0.60;;;21.10;62.00;;;;;;4079756;29;20083;-67
2023/05/17 05:54:25;;;;;;;1.02;0.47;;;21.10;62.00;;;;;;4077738;29;20508;-68
2023/05/17 05:56:47;;;;;;;2.00;0.60;;;21.10;61.80;;;;;;4074261;29;20127;-66
2023/05/17 05:59:10;;;;;;;1.80;0.45;;;21.10;61.90;;;;;;4079158;29;20043;-68
2023/05/17 06:01:32;;;;;;;1.58;0.45;;;21.10;61.80;;;;;;4066478;29;20556;-67
2023/05/17 06:03:55;;;;;;;1.15;0.40;;;21.10;61.80;;;;;;4072441;29;20085;-72
2023/05/17 06:06:18;;;;;;;1.85;0.50;;;21.00;61.70;;;;;;4073076;29;20055;-68
2023/05/17 06:08:40;;;;;;;1.42;0.60;;;21.10;61.90;;;;;;4072797;29;20317;-69
2023/05/17 06:11:03;;;;;;;1.50;0.60;;;21.10;62.00;;;;;;4070764;29;20052;-69
2023/05/17 06:13:26;;;;;;;2.72;1.30;;;21.10;62.00;;;;;;4071910;29;20035;-72
2023/05/17 06:15:48;;;;;;;2.72;0.90;;;21.10;62.00;;;;;;4069362;29;20047;-69
2023/05/17 06:18:11;;;;;;;2.30;1.00;;;21.10;62.10;;;;;;4069564;29;20472;-67
2023/05/17 06:20:33;;;;;;;2.05;1.08;;;21.10;62.10;;;;;;4070911;29;20547;-67
2023/05/17 06:22:56;;;;;;;1.98;1.20;;;21.10;62.10;;;;;;4072786;29;20047;-70
2023/05/17 06:25:18;;;;;;;3.80;1.25;;;21.10;62.70;;;;;;4070594;29;20563;-68
2023/05/17 06:27:41;;;;;;;2.95;1.35;;;21.20;62.10;;;;;;4070842;29;20052;-64
2023/05/17 06:30:04;;;;;;;2.90;1.65;;;21.40;61.70;;;;;;4057268;29;20123;-66
2023/05/17 06:32:27;;;;;;;3.17;1.75;;;21.50;61.00;;;;;;4058717;29;20123;-66
2023/05/17 06:34:49;;;;;;;3.95;1.52;;;21.80;60.10;;;;;;4071923;29;20035;-64
2023/05/17 06:37:12;;;;;;;2.53;1.33;;;22.30;58.80;;;;;;4071935;29;20040;-65
2023/05/17 06:39:34;;;;;;;1.80;1.10;;;22.40;58.20;;;;;;4072327;29;20044;-67
2023/05/17 06:42:00;;;;;;;3.35;1.17;;;22.20;58.60;;;;;;4070964;29;20122;-65
2023/05/17 06:44:22;;;;;;;2.70;1.65;;;22.00;58.90;;;;;;4072917;29;20035;-67
2023/05/17 06:46:45;;;;;;;3.45;1.45;;;21.80;59.20;;;;;;4064757;29;20531;-68
2023/05/17 06:49:07;;;;;;;3.33;1.75;;;21.60;59.60;;;;;;4073242;29;20054;-72
2023/05/17 06:51:30;;;;;;;3.33;1.98;;;21.50;60.20;;;;;;4087750;28;20051;-75
2023/05/17 06:53:52;;;;;;;2.20;1.30;;;21.30;60.60;;;;;;4091250;28;20371;-73
2023/05/17 06:56:15;;;;;;;3.47;1.20;;;21.20;61.20;;;;;;4094220;28;20624;-68
2023/05/17 06:58:37;;;;;;;4.10;1.52;;;21.10;61.40;;;;;;4094141;28;20042;-74
2023/05/17 07:01:00;;;;;;;1.52;0.88;;;21.00;61.70;;;;;;4094942;28;20144;-65
2023/05/17 07:03:22;;;;;;;1.73;0.70;;;20.90;61.90;;;;;;4091767;28;20067;-75
2023/05/17 07:05:45;;;;;;;3.47;1.10;;;20.80;62.20;;;;;;4094098;28;20043;-73
2023/05/17 07:08:07;;;;;;;1.83;0.88;;;20.80;62.70;;;;;;4103590;28;20070;-76
2023/05/17 07:10:30;;;;;;;3.00;0.95;;;20.70;62.90;;;;;;4093561;28;20454;-70
2023/05/17 07:12:52;;;;;;;3.70;1.15;;;20.70;63.00;;;;;;4094803;28;20039;-63
2023/05/17 07:15:15;;;;;;;4.80;1.27;;;20.70;63.20;;;;;;4092698;28;20114;-62
2023/05/17 07:17:37;;;;;;;8.70;1.60;;;20.70;63.00;;;;;;4093511;28;20634;-61
2023/05/17 07:20:00;;;;;;;3.67;1.10;;;20.70;63.00;;;;;;4090904;28;20472;-62
2023/05/17 07:22:22;;;;;;;4.50;1.20;;;20.60;63.00;;;;;;4093382;28;20087;-66
2023/05/17 07:24:46;;;;;;;3.88;0.90;;;20.60;63.20;;;;;;4092946;28;20475;-61
2023/05/17 07:27:08;;;;;;;2.20;0.80;;;20.60;63.30;;;;;;4080464;29;20058;-61
2023/05/17 07:29:31;;;;;;;3.40;0.77;;;20.50;63.30;;;;;;4094296;28;20047;-60
2023/05/17 07:31:53;;;;;;;4.25;1.42;;;20.50;63.50;;;;;;4085955;28;20510;-59
2023/05/17 07:34:16;;;;;;;2.60;0.93;;;20.50;63.50;;;;;;4093298;28;20123;-58
2023/05/17 07:36:38;;;;;;;2.00;0.93;;;20.50;63.50;;;;;;4092458;28;20039;-63
2023/05/17 07:39:00;;;;;;;3.90;1.15;;;20.50;63.60;;;;;;4092543;28;20070;-59
2023/05/17 07:41:23;;;;;;;2.72;1.05;;;20.50;63.60;;;;;;4092275;28;20047;-55
2023/05/17 07:43:46;;;;;;;4.03;1.33;;;20.50;63.80;;;;;;4091479;28;20510;-63
2023/05/17 07:46:08;;;;;;;4.60;1.08;;;20.40;63.80;;;;;;4092033;28;20119;-61
2023/05/17 07:48:30;;;;;;;4.53;1.25;;;20.50;64.00;;;;;;4093078;28;20035;-52
2023/05/17 07:50:53;;;;;;;3.45;0.93;;;20.40;64.00;;;;;;4093824;28;20523;-54
2023/05/17 07:53:15;;;;;;;3.38;1.00;;;20.40;64.00;;;;;;4089595;28;20536;-61
2023/05/17 07:55:38;;;;;;;2.92;1.08;;;20.40;64.00;;;;;;4093413;28;20431;-59
2023/05/17 07:58:01;;;;;;;1.30;0.65;;;20.40;64.20;;;;;;4097037;28;20027;-60
2023/05/17 08:00:24;;;;;;;5.00;1.58;;;20.40;64.30;;;;;;4095431;28;20485;-62
2023/05/17 08:02:46;;;;;;;1.90;0.73;;;20.40;64.30;;;;;;4094282;28;20122;-62
2023/05/17 08:05:09;;;;;;;5.85;2.28;;;20.30;64.30;;;;;;4096785;28;20067;-59
2023/05/17 08:07:32;;;;;;;5.07;1.02;;;20.30;64.40;;;;;;4095717;28;20031;-63
2023/05/17 08:09:54;;;;;;;6.38;1.30;;;20.40;64.20;;;;;;4096724;28;20039;-58
2023/05/17 08:12:16;;;;;;;7.65;1.50;;;20.30;64.40;;;;;;4096188;28;20035;-55
2023/05/17 08:14:39;;;;;;;2.80;0.93;;;20.30;64.40;;;;;;4093822;28;20043;-61
2023/05/17 08:17:02;;;;;;;4.68;1.42;;;20.30;64.50;;;;;;4082330;28;20054;-62
2023/05/17 08:19:25;;;;;;;2.28;1.00;;;20.30;64.50;;;;;;4089256;28;20043;-60
2023/05/17 08:21:48;;;;;;;2.63;0.97;;;20.30;64.50;;;;;;4092601;28;20042;-63
2023/05/17 08:24:10;;;;;;;6.85;1.38;;;20.30;64.60;;;;;;4094058;28;20273;-62
2023/05/17 08:26:33;;;;;;;5.68;1.67;;;20.30;64.60;;;;;;4095840;28;20043;-62
2023/05/17 08:28:55;;;;;;;3.83;1.27;;;20.30;64.60;;;;;;4092081;28;20046;-62
2023/05/17 08:31:17;;;;;;;5.07;1.58;;;20.20;64.50;;;;;;4090962;28;20047;-58
2023/05/17 08:33:41;;;;;;;5.85;1.92;;;20.20;64.70;;;;;;4090881;28;20042;-61
2023/05/17 08:36:06;;;;;;;4.32;1.67;;;20.20;65.30;;;;;;4094264;28;20058;-63
2023/05/17 08:38:29;;;;;;;4.72;1.98;;;20.30;65.60;;;;;;4079606;28;20043;-61
2023/05/17 08:40:55;;;;;;;6.07;1.70;;;20.30;65.80;;;;;;4093486;28;20526;-63
2023/05/17 08:43:18;;;;;;;5.00;1.40;;;20.30;65.90;;;;;;4083544;28;20130;-63
2023/05/17 08:45:41;;;;;;;2.63;1.58;;;20.30;65.90;;;;;;4075039;29;20048;-61
2023/05/17 08:48:05;;;;;;;2.87;1.53;;;20.30;65.80;;;;;;4090338;28;20118;-63
2023/05/17 08:50:30;;;;;;;3.03;1.40;;;20.30;65.70;;;;;;4090859;28;20384;-61
2023/05/17 08:52:53;;;;;;;2.88;1.58;;;20.30;65.70;;;;;;4091115;28;20039;-60
2023/05/17 08:55:15;;;;;;;5.32;1.38;;;20.20;65.60;;;;;;4092934;28;20500;-61
2023/05/17 08:57:39;;;;;;;2.65;1.30;;;20.20;65.50;;;;;;4090277;28;20055;-61
2023/05/17 09:00:19;;;;;;;2.75;1.13;;;20.20;65.60;;;;;;4091905;28;20042;-61
2023/05/17 09:02:42;;;;;;;2.10;1.02;;;20.20;65.70;;;;;;4092809;28;20484;-60
2023/05/17 09:05:06;;;;;;;6.57;1.52;;;20.20;65.70;;;;;;4089804;28;20054;-65
2023/05/17 09:07:28;;;;;;;2.03;1.02;;;20.20;66.30;;;;;;4090485;28;20500;-68
2023/05/17 09:09:54;;;;;;;3.67;1.13;;;20.20;65.70;;;;;;4071838;29;20107;-60
2023/05/17 09:12:17;;;;;;;6.00;1.08;;;20.20;65.70;;;;;;4090501;28;20467;-60
2023/05/17 09:14:39;;;;;;;2.50;1.05;;;20.20;65.70;;;;;;4087259;28;20039;-63
2023/05/17 09:17:02;;;;;;;2.50;0.88;;;20.20;65.70;;;;;;4092043;28;20410;-63
2023/05/17 09:19:24;;;;;;;4.00;1.08;;;20.20;65.60;;;;;;4090351;28;20143;-61
2023/05/17 09:21:47;;;;;;;4.18;1.13;;;20.10;65.60;;;;;;4092315;28;20035;-66
2023/05/17 09:24:10;;;;;;;1.75;1.00;;;20.10;65.50;;;;;;4091460;28;20027;-65
2023/05/17 09:26:45;;;;;;;7.20;1.00;;;20.10;65.50;;;;;;4092499;28;20043;-63
2023/05/17 09:29:13;;;;;;;4.95;1.42;;;20.10;65.30;;;;;;4093347;28;20117;-65
2023/05/17 09:31:35;;;;;;;2.72;1.45;;;20.10;65.30;;;;;;4090011;28;20512;-67
2023/05/17 09:33:59;;;;;;;3.17;0.90;;;20.10;65.20;;;;;;4091203;28;20035;-65
2023/05/17 09:36:22;;;;;;;1.70;1.00;;;20.10;65.10;;;;;;4091869;28;20395;-63
2023/05/17 09:39:09;;;;;;;1.77;1.08;;;20.00;65.10;;;;;;4090388;28;20126;-64
2023/05/17 09:41:40;;;;;;;2.80;0.90;;;20.00;65.00;;;;;;4090428;28;20070;-61
2023/05/17 09:44:08;;;;;;;4.75;1.30;;;20.00;64.90;;;;;;4093115;28;20054;-70
2023/05/17 09:46:34;;;;;;;3.25;1.02;;;20.00;65.00;;;;;;4090111;28;20742;-63
2023/05/17 09:48:56;;;;;;;4.13;0.85;;;20.00;65.10;;;;;;4088970;28;20027;-65
2023/05/17 09:51:19;;;;;;;2.65;1.30;;;20.00;65.00;;;;;;4089111;28;20058;-66
2023/05/17 09:53:41;;;;;;;2.70;0.82;;;20.00;65.00;;;;;;4088158;28;20031;-64
2023/05/17 09:56:05;;;;;;;2.75;0.82;;;20.00;64.90;;;;;;4090253;28;20124;-64
2023/05/17 09:58:27;;;;;;;;;;;20.00;65.00;;;;;;4090195;28;20514;-64
2023/05/17 10:01:02;;;;;;;0.85;0.65;;;19.90;64.90;;;;;;4090806;28;19916;-66
2023/05/17 10:03:29;;;;;;;1.88;0.80;;;19.90;64.90;;;;;;4089590;28;20062;-65
2023/05/17 10:05:53;;;;;;;2.42;0.85;;;19.90;64.60;;;;;;4091647;28;20039;-64
2023/05/17 10:08:19;;;;;;;2.13;0.85;;;19.90;64.90;;;;;;4089618;28;20483;-62
2023/05/17 10:10:42;;;;;;;1.35;0.75;;;19.90;64.90;;;;;;4089812;28;20035;-64
2023/05/17 10:13:07;;;;;;;1.30;0.57;;;19.90;64.90;;;;;;4090193;28;20043;-60
2023/05/17 10:15:29;;;;;;;2.75;0.70;;;19.90;64.90;;;;;;4090535;28;20142;-62
2023/05/17 10:17:52;;;;;;;1.52;0.88;;;19.80;64.80;;;;;;4091370;28;20067;-65
2023/05/17 10:20:17;;;;;;;6.30;1.20;;;19.80;64.90;;;;;;4085819;28;20043;-70
2023/05/17 10:22:40;;;;;;;2.25;0.60;;;19.80;65.00;;;;;;4088873;28;20031;-65
2023/05/17 10:25:03;;;;;;;2.03;0.93;;;19.80;65.00;;;;;;4075890;28;20044;-72
2023/05/17 10:27:26;;;;;;;2.53;1.00;;;19.80;64.90;;;;;;4083010;28;20460;-70
2023/05/17 10:29:49;;;;;;;1.55;0.70;;;19.80;65.00;;;;;;4072418;28;20657;-63
2023/05/17 10:32:15;;;;;;;2.40;0.90;;;19.80;64.90;;;;;;4087249;28;20440;-58
2023/05/17 10:34:39;;;;;;;2.38;0.90;;;19.80;64.90;;;;;;4086385;28;20035;-59
2023/05/17 10:37:02;;;;;;;1.55;0.77;;;19.80;64.90;;;;;;4086109;28;20361;-72
2023/05/17 10:39:26;;;;;;;2.03;0.90;;;19.70;64.80;;;;;;4086967;28;20471;-66
2023/05/17 10:41:52;;;;;;;1.53;0.87;;;19.70;64.80;;;;;;4083936;28;20271;-53
2023/05/17 10:44:16;;;;;;;1.75;1.13;;;19.80;64.70;;;;;;4083728;28;20420;-56
2023/05/17 10:46:39;;;;;;;2.72;0.70;;;19.70;64.60;;;;;;4085097;28;20043;-67
2023/05/17 10:49:01;;;;;;;4.68;1.23;;;19.70;63.80;;;;;;4084967;28;20629;-72
2023/05/17 10:51:35;;;;;;;2.40;1.13;;;19.70;63.70;;;;;;4082146;28;20061;-62
2023/05/17 10:54:17;;;;;;;9.90;1.52;;;19.70;64.00;;;;;;4085966;28;20094;-66
2023/05/17 10:56:50;;;;;;;4.88;1.20;;;19.70;64.10;;;;;;4084250;28;20543;-71
2023/05/17 10:59:23;;;;;;;2.03;0.60;;;19.70;64.30;;;;;;4083802;28;20439;-67
2023/05/17 11:02:06;;;;;;;5.78;1.30;;;19.70;64.20;;;;;;4084224;28;20032;-73
2023/05/17 11:04:36;;;;;;;2.05;0.80;;;19.70;64.20;;;;;;4081277;28;20050;-65
2023/05/17 11:07:28;;;;;;;3.53;1.17;;;19.70;64.90;;;;;;4084757;28;20035;-68
2023/05/17 11:10:05;;;;;;;1.80;0.70;;;19.70;64.10;;;;;;4083016;28;20038;-68
2023/05/17 11:12:30;;;;;;;1.85;1.00;;;19.60;64.10;;;;;;4083719;28;20074;-69
2023/05/17 11:14:53;;;;;;;2.05;0.60;;;19.60;64.20;;;;;;4083675;28;20352;-68
2023/05/17 11:17:20;;;;;;;1.77;0.80;;;19.70;64.30;;;;;;4072453;28;20077;-72
2023/05/17 11:20:05;;;;;;;3.20;0.82;;;19.60;64.20;;;;;;4084663;28;20050;-74
2023/05/17 11:22:38;;;;;;;2.75;1.00;;;19.60;64.20;;;;;;4071646;29;20118;-65
2023/05/17 11:25:05;;;;;;;3.63;0.90;;;19.70;64.20;;;;;;4066158;28;20043;-65
2023/05/17 11:27:35;;;;;;;1.35;0.85;;;19.60;64.20;;;;;;4084636;28;20061;-66
2023/05/17 11:29:59;;;;;;;1.85;0.82;;;19.60;64.20;;;;;;4081972;28;20047;-64
2023/05/17 11:32:31;;;;;;;2.78;0.60;;;19.60;64.20;;;;;;4083466;28;20051;-65
2023/05/17 11:34:54;;;;;;;4.53;1.05;;;19.60;64.20;;;;;;4084126;28;20043;-67
2023/05/17 11:37:28;;;;;;;2.80;0.88;;;19.60;64.20;;;;;;4085321;28;20053;-69
2023/05/17 11:40:09;;;;;;;1.65;0.63;;;19.60;64.30;;;;;;4083007;28;20047;-66
2023/05/17 11:42:32;;;;;;;4.47;0.90;;;19.60;64.30;;;;;;4084720;28;20040;-66
2023/05/17 11:44:57;;;;;;;35.40;1.25;;;19.60;64.20;;;;;;4083561;28;20043;-62
2023/05/17 11:47:19;;;;;;;1.90;0.60;;;19.60;64.20;;;;;;4089068;28;20035;-62
2023/05/17 11:49:42;;;;;;;3.53;0.68;;;19.60;64.20;;;;;;4085036;28;20062;-61
2023/05/17 11:52:08;;;;;;;1.02;0.50;;;19.60;64.30;;;;;;4087603;28;20073;-72
2023/05/17 11:54:31;;;;;;;3.78;0.93;;;19.60;64.40;;;;;;4074126;28;20031;-65
2023/05/17 11:56:54;;;;;;;3.55;0.90;;;19.50;64.30;;;;;;4088465;28;20487;-65
2023/05/17 11:59:21;;;;;;;2.53;0.60;;;19.50;64.30;;;;;;4086677;28;20178;-67
2023/05/17 12:01:48;;;;;;;4.13;1.10;;;19.50;64.30;;;;;;4087361;28;20048;-68
2023/05/17 12:04:10;;;;;;;2.30;0.80;;;19.50;64.40;;;;;;4086689;28;20038;-67
2023/05/17 12:06:34;;;;;;;3.25;0.88;;;19.50;64.40;;;;;;4089885;28;20051;-68
2023/05/17 12:08:57;;;;;;;2.15;0.80;;;19.50;64.40;;;;;;4089415;28;20175;-66
2023/05/17 12:11:20;;;;;;;2.35;0.85;;;19.50;64.50;;;;;;4088790;28;20054;-64
2023/05/17 12:13:45;;;;;;;4.10;0.77;;;19.50;64.40;;;;;;4090121;28;20063;-68
2023/05/17 12:16:13;;;;;;;1.23;0.50;;;19.50;64.40;;;;;;4089336;28;20034;-68
2023/05/17 12:18:40;;;;;;;2.05;0.80;;;19.50;64.50;;;;;;4086309;28;20041;-61
2023/05/17 12:21:03;;;;;;;2.22;0.60;;;19.50;64.50;;;;;;4087915;28;20086;-64
2023/05/17 12:23:45;;;;;;;1.73;0.68;;;19.40;64.50;;;;;;4088498;28;21568;-64
2023/05/17 12:26:08;;;;;;;1.75;1.00;;;19.40;64.50;;;;;;4088034;28;20110;-64
2023/05/17 12:28:31;;;;;;;1.10;0.90;;;19.40;64.40;;;;;;4088862;28;20113;-63
2023/05/17 12:31:01;;;;;;;1.60;0.80;;;19.40;64.60;;;;;;4088046;28;20062;-66
2023/05/17 12:33:25;;;;;;;2.47;0.80;;;19.40;64.40;;;;;;4087495;28;20035;-62